Time;durP1;ratioP1;P1;durP2;ratioP2;P2;SDS_P1;SDS_P2;PMS_P1;PMS_P2;Temp;Humidity;BMP_temperature;BMP_pressure;BME280_temperature;BME280_humidity;BME280_pressure;Samples;Min_cycle;Max_cycle;Signal;HPM_P1;HPM_P2
2023/05/09 00:01:30;;;;;;;5.15;2.72;;;13.60;99.90;;;;;;6244018;22;20516;-65
2023/05/09 00:03:57;;;;;;;4.53;2.30;;;13.60;99.90;;;;;;6242584;22;20286;-65
2023/05/09 00:06:25;;;;;;;3.53;2.45;;;13.50;99.90;;;;;;6246975;22;20203;-65
2023/05/09 00:08:52;;;;;;;4.55;2.72;;;13.50;99.90;;;;;;6243698;22;20176;-65
2023/05/09 00:11:19;;;;;;;2.75;2.55;;;13.60;99.90;;;;;;6255506;22;20208;-65
2023/05/09 00:13:47;;;;;;;3.53;2.38;;;13.50;99.90;;;;;;6253076;22;20180;-65
2023/05/09 00:16:14;;;;;;;2.35;2.13;;;13.50;99.90;;;;;;6237836;22;20686;-65
2023/05/09 00:18:42;;;;;;;2.42;2.20;;;13.40;99.90;;;;;;6247839;22;20176;-65
2023/05/09 00:21:09;;;;;;;3.30;2.10;;;13.50;99.90;;;;;;6239629;22;20176;-65
2023/05/09 00:23:36;;;;;;;2.88;2.15;;;13.50;99.90;;;;;;6248978;22;20288;-65
2023/05/09 00:26:03;;;;;;;2.70;2.50;;;13.50;99.90;;;;;;6251637;22;20175;-65
2023/05/09 00:28:31;;;;;;;3.40;2.40;;;13.40;99.90;;;;;;6256530;22;20172;-65
2023/05/09 00:30:59;;;;;;;5.03;2.97;;;13.40;99.90;;;;;;6233812;22;20176;-65
2023/05/09 00:33:26;;;;;;;4.72;2.40;;;13.40;99.90;;;;;;6255488;22;20283;-65
2023/05/09 00:35:53;;;;;;;2.78;2.20;;;13.30;99.90;;;;;;6242540;22;20176;-65
2023/05/09 00:38:20;;;;;;;3.08;2.53;;;13.30;99.90;;;;;;6239201;22;20191;-65
2023/05/09 00:40:46;;;;;;;6.65;2.20;;;13.20;99.90;;;;;;6250499;22;20713;-65
2023/05/09 00:43:13;;;;;;;6.60;2.60;;;13.20;99.90;;;;;;6253330;22;20207;-65
2023/05/09 00:45:40;;;;;;;3.22;2.40;;;13.10;99.90;;;;;;6237339;22;20180;-65
2023/05/09 00:48:08;;;;;;;2.50;2.30;;;13.20;99.90;;;;;;6250577;22;20173;-65
2023/05/09 00:50:36;;;;;;;6.40;2.60;;;13.10;99.90;;;;;;6247256;22;20176;-65
2023/05/09 00:53:03;;;;;;;4.85;2.47;;;13.20;99.90;;;;;;6240625;22;20407;-65
2023/05/09 00:55:30;;;;;;;2.92;2.20;;;13.20;99.90;;;;;;6254177;22;20183;-65
2023/05/09 00:57:57;;;;;;;3.55;2.35;;;13.10;99.90;;;;;;6247552;22;21118;-65
2023/05/09 01:00:24;;;;;;;2.85;2.33;;;13.10;99.90;;;;;;6252184;22;20183;-65
2023/05/09 01:02:53;;;;;;;4.53;2.35;;;13.00;99.90;;;;;;6232469;22;20186;-65
2023/05/09 01:05:25;;;;;;;2.60;2.10;;;13.00;99.90;;;;;;6250998;22;20203;-65
2023/05/09 01:08:00;;;;;;;2.58;2.10;;;13.00;99.90;;;;;;6240596;22;20172;-65
2023/05/09 01:10:33;;;;;;;3.00;2.30;;;13.00;99.90;;;;;;6243279;22;20186;-65
2023/05/09 01:13:09;;;;;;;2.70;2.25;;;13.00;99.90;;;;;;6246805;22;20179;-65
2023/05/09 01:15:44;;;;;;;3.28;2.72;;;13.00;99.90;;;;;;6251433;22;20757;-64
2023/05/09 01:18:17;;;;;;;5.00;2.60;;;12.90;99.90;;;;;;6230890;22;20176;-65
2023/05/09 01:20:51;;;;;;;3.28;2.78;;;12.90;99.90;;;;;;6247017;22;20198;-65
2023/05/09 01:23:49;;;;;;;2.30;2.03;;;12.90;99.90;;;;;;6252172;22;20272;-64
2023/05/09 01:26:25;;;;;;;5.40;2.50;;;12.90;99.90;;;;;;6249783;22;20172;-65
2023/05/09 01:29:36;;;;;;;3.38;2.58;;;12.90;99.90;;;;;;6247238;22;20176;-65
2023/05/09 01:32:05;;;;;;;6.90;2.25;;;12.90;99.90;;;;;;6230179;22;20183;-65
2023/05/09 01:34:33;;;;;;;4.15;2.75;;;12.80;99.90;;;;;;6248101;22;20172;-65
2023/05/09 01:37:03;;;;;;;3.53;2.50;;;12.90;99.90;;;;;;6239505;22;20172;-65
2023/05/09 01:39:32;;;;;;;2.58;2.25;;;12.80;99.90;;;;;;6242488;22;20172;-65
2023/05/09 01:42:03;;;;;;;2.70;2.28;;;12.80;99.90;;;;;;6247901;22;20179;-65
2023/05/09 01:44:35;;;;;;;3.83;2.70;;;12.80;99.90;;;;;;6249849;22;20230;-65
2023/05/09 01:47:03;;;;;;;2.25;2.05;;;12.80;99.90;;;;;;6246197;22;20174;-65
2023/05/09 01:49:32;;;;;;;2.42;2.08;;;12.80;99.90;;;;;;6234059;22;20517;-65
2023/05/09 01:52:03;;;;;;;7.38;2.47;;;12.80;99.90;;;;;;6239504;22;20713;-65
2023/05/09 01:54:31;;;;;;;1.90;1.80;;;12.70;99.90;;;;;;6249763;22;20180;-65
2023/05/09 01:56:59;;;;;;;4.07;2.35;;;12.70;99.90;;;;;;6239742;22;20179;-65
2023/05/09 01:59:28;;;;;;;3.20;2.38;;;12.70;99.90;;;;;;6250062;22;20176;-65
2023/05/09 02:01:56;;;;;;;3.03;2.20;;;12.70;99.90;;;;;;6244882;22;20639;-65
2023/05/09 02:04:24;;;;;;;2.83;2.28;;;12.70;99.90;;;;;;6232909;22;20784;-65
2023/05/09 02:06:51;;;;;;;3.17;2.47;;;12.70;99.90;;;;;;6245997;22;20682;-65
2023/05/09 02:09:19;;;;;;;3.05;2.10;;;12.60;99.90;;;;;;6244107;22;20172;-64
2023/05/09 02:11:46;;;;;;;4.68;2.55;;;12.60;99.90;;;;;;6242123;22;20182;-65
2023/05/09 02:14:13;;;;;;;5.53;2.97;;;12.60;99.90;;;;;;6251850;22;20180;-65
2023/05/09 02:16:41;;;;;;;3.20;2.08;;;12.60;99.90;;;;;;6249086;22;20176;-65
2023/05/09 02:19:09;;;;;;;3.75;2.40;;;12.60;99.90;;;;;;6233342;22;20176;-65
2023/05/09 02:21:36;;;;;;;4.43;2.28;;;12.50;99.90;;;;;;6242890;22;20172;-65
2023/05/09 02:24:04;;;;;;;13.52;2.60;;;12.50;99.90;;;;;;6241695;22;20990;-65
2023/05/09 02:26:31;;;;;;;3.45;2.00;;;12.50;99.90;;;;;;6240846;22;20194;-65
2023/05/09 02:28:58;;;;;;;6.07;2.15;;;12.40;99.90;;;;;;6252188;22;20172;-65
2023/05/09 02:31:27;;;;;;;2.17;1.80;;;12.40;99.90;;;;;;6248340;22;20172;-65
2023/05/09 02:33:55;;;;;;;3.33;2.42;;;12.50;99.90;;;;;;6249188;22;20176;-65
2023/05/09 02:36:24;;;;;;;3.35;2.10;;;12.40;99.90;;;;;;6226913;22;20176;-65
2023/05/09 02:38:51;;;;;;;2.63;1.90;;;12.40;99.90;;;;;;6247344;22;20176;-64
2023/05/09 02:41:18;;;;;;;3.67;2.22;;;12.40;99.90;;;;;;6232831;22;20176;-65
2023/05/09 02:43:44;;;;;;;2.38;2.10;;;12.40;99.90;;;;;;6239399;22;20196;-64
2023/05/09 02:46:11;;;;;;;4.78;2.15;;;12.40;99.90;;;;;;6249239;22;20589;-65
2023/05/09 02:48:38;;;;;;;2.47;2.10;;;12.40;99.90;;;;;;6243806;22;20171;-65
2023/05/09 02:51:05;;;;;;;10.27;2.25;;;12.40;99.90;;;;;;6233379;22;20184;-65
2023/05/09 02:53:33;;;;;;;3.38;2.13;;;12.40;99.90;;;;;;6243905;22;20175;-65
2023/05/09 02:56:00;;;;;;;4.25;2.10;;;12.40;99.90;;;;;;6241110;22;20172;-64
2023/05/09 02:58:26;;;;;;;2.45;1.88;;;12.40;99.90;;;;;;6243543;22;20203;-65
2023/05/09 03:00:53;;;;;;;2.70;2.20;;;12.30;99.90;;;;;;6247981;22;20179;-65
2023/05/09 03:03:20;;;;;;;2.60;2.10;;;12.40;99.90;;;;;;6248723;22;20178;-65
2023/05/09 03:05:47;;;;;;;4.05;2.20;;;12.30;99.90;;;;;;6242930;22;20218;-65
2023/05/09 03:08:14;;;;;;;5.90;2.10;;;12.30;99.90;;;;;;6233777;22;20176;-64
2023/05/09 03:10:42;;;;;;;4.60;2.42;;;12.20;99.90;;;;;;6247457;22;20981;-64
2023/05/09 03:13:09;;;;;;;4.65;2.30;;;12.20;99.90;;;;;;6237514;22;20374;-64
2023/05/09 03:15:36;;;;;;;4.85;1.90;;;12.20;99.90;;;;;;6246162;22;20180;-65
2023/05/09 03:18:03;;;;;;;4.78;2.05;;;12.10;99.90;;;;;;6247793;22;20486;-65
2023/05/09 03:20:30;;;;;;;2.72;2.10;;;12.10;99.90;;;;;;6240817;22;20176;-64
2023/05/09 03:22:57;;;;;;;9.35;2.30;;;12.00;99.90;;;;;;6234626;22;20674;-65
2023/05/09 03:25:25;;;;;;;8.30;2.03;;;12.10;99.90;;;;;;6249308;22;20697;-64
2023/05/09 03:27:53;;;;;;;4.30;2.13;;;12.10;99.90;;;;;;6243042;22;20653;-65
2023/05/09 03:30:20;;;;;;;2.97;1.92;;;12.00;99.90;;;;;;6244960;22;20183;-64
2023/05/09 03:32:46;;;;;;;2.33;2.05;;;12.00;99.90;;;;;;6249084;22;20187;-65
2023/05/09 03:35:13;;;;;;;2.53;2.20;;;12.00;99.90;;;;;;6244321;22;20172;-64
2023/05/09 03:37:40;;;;;;;2.50;2.28;;;12.00;99.90;;;;;;6232705;22;20176;-65
2023/05/09 03:40:08;;;;;;;2.42;2.00;;;12.00;99.90;;;;;;6250645;22;20176;-64
2023/05/09 03:42:35;;;;;;;4.70;2.22;;;12.00;99.90;;;;;;6239129;22;20191;-64
2023/05/09 03:45:03;;;;;;;3.25;2.13;;;11.90;99.90;;;;;;6246216;22;20208;-64
2023/05/09 03:47:30;;;;;;;2.28;2.00;;;11.90;99.90;;;;;;6249203;22;20202;-65
2023/05/09 03:49:57;;;;;;;2.30;1.80;;;11.90;99.90;;;;;;6243850;22;20199;-65
2023/05/09 03:52:24;;;;;;;2.53;1.92;;;11.90;99.90;;;;;;6242637;22;20172;-64
2023/05/09 03:54:51;;;;;;;3.47;2.15;;;11.90;99.90;;;;;;6242951;22;20180;-64
2023/05/09 03:57:18;;;;;;;2.40;1.90;;;11.80;99.90;;;;;;6241268;22;20180;-64
2023/05/09 03:59:44;;;;;;;3.50;2.30;;;11.80;99.90;;;;;;6232975;22;20192;-64
2023/05/09 04:02:12;;;;;;;3.05;1.60;;;11.80;99.90;;;;;;6224940;22;20172;-64
2023/05/09 04:04:39;;;;;;;2.85;2.40;;;11.80;99.90;;;;;;6251188;22;20199;-65
2023/05/09 04:07:06;;;;;;;2.88;2.03;;;11.80;99.90;;;;;;6234882;22;20605;-65
2023/05/09 04:09:33;;;;;;;3.00;2.63;;;11.80;99.90;;;;;;6231269;22;20192;-65
2023/05/09 04:12:00;;;;;;;3.80;2.25;;;11.80;99.90;;;;;;6254367;22;20920;-65
2023/05/09 04:14:26;;;;;;;4.15;2.30;;;11.80;99.90;;;;;;6229993;22;20508;-65
2023/05/09 04:16:53;;;;;;;4.72;2.17;;;11.80;99.90;;;;;;6238328;22;20282;-65
2023/05/09 04:19:21;;;;;;;2.55;2.03;;;11.80;99.90;;;;;;6248674;22;20172;-65
2023/05/09 04:21:48;;;;;;;4.07;2.33;;;11.80;99.90;;;;;;6221278;22;20182;-64
2023/05/09 04:24:15;;;;;;;4.43;2.17;;;11.80;99.90;;;;;;6234407;22;20176;-65
2023/05/09 04:26:42;;;;;;;6.22;2.30;;;11.90;99.90;;;;;;6250995;22;20566;-65
2023/05/09 04:29:08;;;;;;;2.92;2.13;;;11.90;99.90;;;;;;6240912;22;20643;-64
2023/05/09 04:31:35;;;;;;;3.83;2.20;;;11.90;99.90;;;;;;6242248;22;20172;-64
2023/05/09 04:34:02;;;;;;;2.38;2.00;;;11.90;99.90;;;;;;6245229;22;20183;-65
2023/05/09 04:36:32;;;;;;;5.28;2.08;;;12.00;99.90;;;;;;6241370;22;20199;-64
2023/05/09 04:38:59;;;;;;;4.55;2.50;;;12.00;99.90;;;;;;6243735;22;20179;-65
2023/05/09 04:41:26;;;;;;;4.47;2.42;;;12.10;99.90;;;;;;6232480;22;20186;-64
2023/05/09 04:43:53;;;;;;;3.00;2.28;;;12.00;99.90;;;;;;6229803;22;20228;-64
2023/05/09 04:46:20;;;;;;;4.07;2.20;;;12.00;99.90;;;;;;6233588;22;20784;-65
2023/05/09 04:48:46;;;;;;;3.25;2.30;;;12.10;99.90;;;;;;6236276;22;20634;-64
2023/05/09 04:51:13;;;;;;;6.65;1.95;;;12.20;99.90;;;;;;6249593;22;20590;-65
2023/05/09 04:53:41;;;;;;;3.15;2.20;;;12.20;99.90;;;;;;6232253;22;20172;-64
2023/05/09 04:56:08;;;;;;;3.38;2.40;;;12.30;99.90;;;;;;6234675;22;20757;-64
2023/05/09 04:58:37;;;;;;;2.53;2.22;;;12.30;99.90;;;;;;6248484;22;20271;-65
2023/05/09 05:01:04;;;;;;;3.95;2.20;;;12.30;99.90;;;;;;6243486;22;20200;-65
2023/05/09 05:03:30;;;;;;;3.53;2.35;;;12.40;99.90;;;;;;6231728;22;20502;-65
2023/05/09 05:05:57;;;;;;;2.38;2.17;;;12.40;99.90;;;;;;6248802;22;20293;-65
2023/05/09 05:08:24;;;;;;;3.55;2.20;;;12.40;99.90;;;;;;6240425;22;20178;-64
2023/05/09 05:10:52;;;;;;;4.78;2.50;;;12.40;99.90;;;;;;6219013;22;20402;-64
2023/05/09 05:13:20;;;;;;;2.65;2.22;;;12.50;99.90;;;;;;6246018;22;20707;-64
2023/05/09 05:15:47;;;;;;;3.15;2.45;;;12.50;99.90;;;;;;6235085;22;20691;-64
2023/05/09 05:18:13;;;;;;;3.08;2.42;;;12.50;99.90;;;;;;6243439;22;20192;-64
2023/05/09 05:20:41;;;;;;;6.05;2.83;;;12.40;99.90;;;;;;6226608;22;20172;-65
2023/05/09 05:23:08;;;;;;;6.65;2.17;;;12.50;99.90;;;;;;6240564;22;20207;-64
2023/05/09 05:25:35;;;;;;;3.92;2.50;;;12.50;99.90;;;;;;6234896;22;20211;-64
2023/05/09 05:28:03;;;;;;;2.88;2.58;;;12.50;99.90;;;;;;6216313;22;20206;-65
2023/05/09 05:30:29;;;;;;;6.72;2.58;;;12.60;99.90;;;;;;6243808;22;20207;-64
2023/05/09 05:32:56;;;;;;;9.85;2.78;;;12.60;99.90;;;;;;6243684;22;20199;-64
2023/05/09 05:35:23;;;;;;;3.10;2.47;;;12.60;99.90;;;;;;6243818;22;20212;-65
2023/05/09 05:37:50;;;;;;;5.10;2.60;;;12.70;99.90;;;;;;6237057;22;20176;-64
2023/05/09 05:40:17;;;;;;;3.42;2.80;;;12.70;99.90;;;;;;6251073;22;20196;-64
2023/05/09 05:42:45;;;;;;;6.38;2.53;;;12.90;99.90;;;;;;6217301;22;20706;-65
2023/05/09 05:45:13;;;;;;;2.97;2.40;;;12.90;99.90;;;;;;6248845;22;20544;-65
2023/05/09 05:47:40;;;;;;;3.90;2.78;;;12.90;99.90;;;;;;6235446;22;20211;-63
2023/05/09 05:50:10;;;;;;;3.65;2.42;;;13.00;99.90;;;;;;6250284;22;20180;-65
2023/05/09 05:52:37;;;;;;;4.57;2.70;;;13.00;99.90;;;;;;6241421;22;20175;-64
2023/05/09 05:55:04;;;;;;;3.63;2.58;;;13.00;99.90;;;;;;6239144;22;20636;-65
2023/05/09 05:57:33;;;;;;;5.38;2.70;;;13.00;99.90;;;;;;6231424;22;20255;-65
2023/05/09 06:00:00;;;;;;;8.90;2.97;;;13.10;99.90;;;;;;6246023;22;20180;-65
2023/05/09 06:02:28;;;;;;;7.60;2.83;;;13.00;99.90;;;;;;6251827;22;20176;-64
2023/05/09 06:04:55;;;;;;;7.07;2.78;;;13.10;99.90;;;;;;6239371;22;20718;-64
2023/05/09 06:07:21;;;;;;;3.53;2.80;;;13.10;99.90;;;;;;6235618;22;20679;-64
2023/05/09 06:09:48;;;;;;;6.70;3.38;;;13.10;99.90;;;;;;6239190;22;20172;-64
2023/05/09 06:12:16;;;;;;;4.40;3.10;;;13.20;99.90;;;;;;6247561;22;20192;-64
2023/05/09 06:14:42;;;;;;;5.28;2.50;;;13.20;99.90;;;;;;6237011;22;20194;-64
2023/05/09 06:17:09;;;;;;;13.00;3.47;;;13.30;99.90;;;;;;6237100;22;20172;-64
2023/05/09 06:19:39;;;;;;;3.10;2.50;;;13.30;99.90;;;;;;6239085;22;20219;-64
2023/05/09 06:22:05;;;;;;;4.30;3.33;;;13.40;99.90;;;;;;6238821;22;20196;-64
2023/05/09 06:24:32;;;;;;;3.80;2.83;;;13.40;99.90;;;;;;6234218;22;20176;-64
2023/05/09 06:26:59;;;;;;;5.43;2.85;;;13.50;99.90;;;;;;6250544;22;20204;-64
2023/05/09 06:29:26;;;;;;;6.05;2.85;;;13.50;99.90;;;;;;6229697;22;20669;-64
2023/05/09 06:31:53;;;;;;;4.20;3.33;;;13.60;99.90;;;;;;6250278;22;20180;-64
2023/05/09 06:34:20;;;;;;;4.28;3.10;;;13.60;99.90;;;;;;6234651;22;20177;-65
2023/05/09 06:36:48;;;;;;;3.72;3.15;;;13.70;99.90;;;;;;6246490;22;20183;-64
2023/05/09 06:39:15;;;;;;;3.75;3.13;;;13.70;99.90;;;;;;6222009;22;20507;-65
2023/05/09 06:41:42;;;;;;;3.70;2.92;;;13.80;99.90;;;;;;6247529;22;20179;-65
2023/05/09 06:44:09;;;;;;;4.65;3.70;;;13.90;99.90;;;;;;6232616;22;20183;-65
2023/05/09 06:46:36;;;;;;;4.88;3.45;;;14.00;99.90;;;;;;6243979;22;20207;-64
2023/05/09 06:49:04;;;;;;;3.88;3.28;;;14.00;99.90;;;;;;6243337;22;20870;-65
2023/05/09 06:51:31;;;;;;;4.00;3.15;;;14.10;99.90;;;;;;6244725;22;20225;-65
2023/05/09 06:53:59;;;;;;;13.05;4.85;;;14.20;99.90;;;;;;6232994;22;20207;-64
2023/05/09 06:56:26;;;;;;;7.00;3.55;;;14.20;99.90;;;;;;6231237;22;20180;-65
2023/05/09 06:58:53;;;;;;;4.35;3.60;;;14.30;99.90;;;;;;6241974;22;20486;-65
2023/05/09 07:01:20;;;;;;;8.13;3.55;;;14.40;99.90;;;;;;6226844;22;20176;-65
2023/05/09 07:03:47;;;;;;;4.00;3.55;;;14.40;99.90;;;;;;6246032;22;20172;-65
2023/05/09 07:06:14;;;;;;;6.85;3.60;;;14.50;99.90;;;;;;6242511;22;20536;-65
2023/05/09 07:08:41;;;;;;;4.25;3.85;;;14.60;99.90;;;;;;6239748;22;20180;-65
2023/05/09 07:11:09;;;;;;;5.28;4.20;;;14.70;99.90;;;;;;6227916;22;20203;-64
2023/05/09 07:13:36;;;;;;;5.28;4.10;;;14.80;99.90;;;;;;6228916;22;20532;-65
2023/05/09 07:16:03;;;;;;;6.22;4.63;;;14.90;99.90;;;;;;6226258;22;20192;-65
2023/05/09 07:18:30;;;;;;;6.97;5.10;;;15.00;99.90;;;;;;6244392;22;20193;-65
2023/05/09 07:20:57;;;;;;;10.00;4.57;;;15.00;99.90;;;;;;6221122;22;20738;-65
2023/05/09 07:23:25;;;;;;;5.70;4.75;;;15.10;99.90;;;;;;6241427;22;20742;-65
2023/05/09 07:25:57;;;;;;;5.32;4.30;;;15.20;99.90;;;;;;6226652;22;20542;-64
2023/05/09 07:28:25;;;;;;;7.75;4.97;;;15.20;99.90;;;;;;6248444;22;20196;-64
2023/05/09 07:30:52;;;;;;;5.32;4.10;;;15.30;99.90;;;;;;6228334;22;20290;-65
2023/05/09 07:33:19;;;;;;;8.43;4.60;;;15.30;99.90;;;;;;6249512;22;20176;-65
2023/05/09 07:35:46;;;;;;;7.43;4.93;;;15.30;99.90;;;;;;6238285;22;20854;-65
2023/05/09 07:38:13;;;;;;;10.90;5.38;;;15.20;99.90;;;;;;6251737;22;20608;-65
2023/05/09 07:40:40;;;;;;;8.38;5.55;;;15.20;99.90;;;;;;6232141;22;20176;-65
2023/05/09 07:43:07;;;;;;;6.40;5.03;;;15.20;99.90;;;;;;6250824;22;20172;-64
2023/05/09 07:45:35;;;;;;;5.38;4.75;;;15.20;99.90;;;;;;6228842;22;20682;-65
2023/05/09 07:48:02;;;;;;;7.88;5.57;;;15.20;99.90;;;;;;6252684;22;20172;-64
2023/05/09 07:50:29;;;;;;;8.15;5.15;;;15.30;99.90;;;;;;6241196;22;20263;-65
2023/05/09 07:52:56;;;;;;;11.65;5.70;;;15.30;99.90;;;;;;6244603;22;20183;-65
2023/05/09 07:55:23;;;;;;;8.90;5.65;;;15.40;99.90;;;;;;6241823;22;20179;-65
2023/05/09 07:57:50;;;;;;;9.90;5.35;;;15.50;99.90;;;;;;6243781;22;20918;-65
2023/05/09 08:00:22;;;;;;;9.52;5.45;;;15.60;99.90;;;;;;6254516;22;21026;-66
2023/05/09 08:02:50;;;;;;;6.72;5.32;;;15.60;99.90;;;;;;6238337;22;20184;-65
2023/05/09 08:05:17;;;;;;;10.68;6.00;;;15.70;99.90;;;;;;6250322;22;20975;-64
2023/05/09 08:07:44;;;;;;;8.90;6.22;;;15.70;99.90;;;;;;6239183;22;20176;-65
2023/05/09 08:10:11;;;;;;;9.18;5.90;;;15.70;99.90;;;;;;6254153;22;20279;-64
2023/05/09 08:12:38;;;;;;;7.43;5.88;;;15.80;99.90;;;;;;6232126;22;20176;-64
2023/05/09 08:15:06;;;;;;;10.93;6.32;;;15.80;99.90;;;;;;6255855;22;20643;-65
2023/05/09 08:17:33;;;;;;;14.10;6.15;;;15.80;99.90;;;;;;6228216;22;20184;-65
2023/05/09 08:20:02;;;;;;;8.07;6.45;;;15.80;99.90;;;;;;6250609;22;20196;-64
2023/05/09 08:22:31;;;;;;;10.55;5.90;;;15.90;99.90;;;;;;6243991;22;20179;-64
2023/05/09 08:24:58;;;;;;;8.55;5.90;;;16.00;99.90;;;;;;6252866;22;20179;-65
2023/05/09 08:27:25;;;;;;;8.48;6.50;;;16.00;99.90;;;;;;6243708;22;20199;-64
2023/05/09 08:29:52;;;;;;;10.60;6.22;;;16.10;99.90;;;;;;6239741;22;20172;-64
2023/05/09 08:32:19;;;;;;;12.15;6.70;;;16.10;99.90;;;;;;6231470;22;20192;-65
2023/05/09 08:34:46;;;;;;;7.30;5.85;;;16.20;99.90;;;;;;6247953;22;20184;-65
2023/05/09 08:37:14;;;;;;;8.40;6.53;;;16.30;99.90;;;;;;6232027;22;20558;-65
2023/05/09 08:39:41;;;;;;;9.23;6.40;;;16.40;99.90;;;;;;6250100;22;20187;-65
2023/05/09 08:42:09;;;;;;;9.90;7.18;;;16.50;99.90;;;;;;6249745;22;20344;-65
2023/05/09 08:44:36;;;;;;;12.13;6.68;;;16.50;99.90;;;;;;6240751;22;20176;-65
2023/05/09 08:47:04;;;;;;;9.50;6.50;;;16.60;99.90;;;;;;6233284;22;20208;-64
2023/05/09 08:49:32;;;;;;;10.05;6.65;;;16.70;99.90;;;;;;6251393;22;20183;-65
2023/05/09 08:51:59;;;;;;;11.88;5.82;;;16.80;99.90;;;;;;6242804;22;20176;-65
2023/05/09 08:54:28;;;;;;;9.32;6.53;;;16.90;99.90;;;;;;6232344;22;20176;-65
2023/05/09 08:56:56;;;;;;;10.63;7.22;;;17.00;99.90;;;;;;6240525;22;20175;-64
2023/05/09 08:59:24;;;;;;;9.18;6.72;;;16.90;99.90;;;;;;6242349;22;20176;-64
2023/05/09 09:01:53;;;;;;;11.43;6.55;;;16.80;99.90;;;;;;6229379;22;20180;-64
2023/05/09 09:04:20;;;;;;;9.77;6.28;;;16.90;99.90;;;;;;6249815;22;20176;-64
2023/05/09 09:06:47;;;;;;;13.60;7.53;;;17.00;99.90;;;;;;6239783;22;20625;-64
2023/05/09 09:09:16;;;;;;;13.32;8.00;;;17.00;99.90;;;;;;6252004;22;20925;-64
2023/05/09 09:11:46;;;;;;;10.82;6.25;;;17.20;99.90;;;;;;6250185;22;20183;-64
2023/05/09 09:14:15;;;;;;;7.95;6.50;;;17.40;99.90;;;;;;6241275;22;20172;-65
2023/05/09 09:16:44;;;;;;;8.10;6.68;;;17.50;99.90;;;;;;6246930;22;20169;-64
2023/05/09 09:19:13;;;;;;;8.13;6.82;;;17.60;99.90;;;;;;6235208;22;20647;-64
2023/05/09 09:21:42;;;;;;;9.60;6.50;;;17.70;99.90;;;;;;6249746;22;20643;-65
2023/05/09 09:24:10;;;;;;;8.90;7.00;;;17.80;99.90;;;;;;6245113;22;20385;-65
2023/05/09 09:26:47;;;;;;;8.07;7.05;;;17.90;99.90;;;;;;6250569;22;20593;-64
2023/05/09 09:29:15;;;;;;;17.95;7.50;;;17.90;99.90;;;;;;6245853;22;20627;-64
2023/05/09 09:31:44;;;;;;;12.52;7.18;;;18.00;99.90;;;;;;6249382;22;20172;-64
2023/05/09 09:34:14;;;;;;;9.15;6.78;;;18.10;99.90;;;;;;6234894;22;20650;-65
2023/05/09 09:36:41;;;;;;;10.45;7.93;;;18.10;99.90;;;;;;6249659;22;20176;-65
2023/05/09 09:39:08;;;;;;;12.43;8.00;;;18.20;99.90;;;;;;6245098;22;20249;-65
2023/05/09 09:41:36;;;;;;;11.75;6.90;;;18.20;99.90;;;;;;6250545;22;20172;-65
2023/05/09 09:44:12;;;;;;;12.57;7.07;;;18.30;99.90;;;;;;6239337;22;20172;-65
2023/05/09 09:46:43;;;;;;;9.35;7.03;;;18.40;99.90;;;;;;6248872;22;20203;-65
2023/05/09 09:49:11;;;;;;;10.18;7.18;;;18.40;99.90;;;;;;6234124;22;20204;-65
2023/05/09 09:51:37;;;;;;;9.55;7.20;;;18.50;99.90;;;;;;6250507;22;20191;-65
2023/05/09 09:54:07;;;;;;;7.15;6.45;;;18.60;99.90;;;;;;6244295;22;20203;-65
2023/05/09 09:56:41;;;;;;;9.57;7.07;;;18.70;99.90;;;;;;6227949;22;20249;-65
2023/05/09 09:59:11;;;;;;;10.43;7.78;;;18.70;99.90;;;;;;6245434;22;20179;-66
2023/05/09 10:01:54;;;;;;;11.60;7.65;;;18.70;99.90;;;;;;6234548;22;20881;-65
2023/05/09 10:04:21;;;;;;;9.95;7.45;;;18.70;99.90;;;;;;6217969;22;20516;-65
2023/05/09 10:06:53;;;;;;;11.15;8.18;;;18.70;99.90;;;;;;6244638;22;20211;-65
2023/05/09 10:09:21;;;;;;;12.40;8.43;;;18.70;99.90;;;;;;6249318;22;20172;-65
2023/05/09 10:11:50;;;;;;;13.88;7.88;;;18.60;99.90;;;;;;6244635;22;20176;-64
2023/05/09 10:14:20;;;;;;;11.02;7.70;;;18.70;99.90;;;;;;6250679;22;20223;-65
2023/05/09 10:16:48;;;;;;;11.73;7.93;;;18.70;99.90;;;;;;6242162;22;20500;-65
2023/05/09 10:19:18;;;;;;;8.88;7.22;;;18.70;99.90;;;;;;6240322;22;20257;-65
2023/05/09 10:21:49;;;;;;;8.82;7.40;;;18.70;99.90;;;;;;6232153;22;20176;-65
2023/05/09 10:24:17;;;;;;;8.77;7.72;;;18.70;99.90;;;;;;6249835;22;20257;-65
2023/05/09 10:26:48;;;;;;;14.55;7.40;;;18.80;99.90;;;;;;6244888;22;20210;-65
2023/05/09 10:29:21;;;;;;;8.95;7.00;;;18.80;99.90;;;;;;6245429;22;20200;-64
2023/05/09 10:31:52;;;;;;;9.35;8.32;;;18.80;99.90;;;;;;6236014;22;20172;-64
2023/05/09 10:34:20;;;;;;;9.40;7.72;;;18.70;99.90;;;;;;6239278;22;20183;-64
2023/05/09 10:36:48;;;;;;;13.30;7.70;;;18.80;99.90;;;;;;6228940;22;20203;-64
2023/05/09 10:39:16;;;;;;;9.80;7.25;;;18.90;99.90;;;;;;6245311;22;20192;-65
2023/05/09 10:41:44;;;;;;;8.27;6.40;;;18.90;99.90;;;;;;6250772;22;20172;-65
2023/05/09 10:44:11;;;;;;;9.65;8.00;;;18.90;99.90;;;;;;6242961;22;20594;-65
2023/05/09 10:46:38;;;;;;;10.65;7.85;;;19.00;99.90;;;;;;6243057;22;20200;-65
2023/05/09 10:49:07;;;;;;;9.48;7.15;;;19.10;99.90;;;;;;6246610;22;20192;-65
2023/05/09 10:51:34;;;;;;;11.02;7.40;;;19.10;99.90;;;;;;6228810;22;20314;-65
2023/05/09 10:54:01;;;;;;;10.82;7.95;;;19.20;99.90;;;;;;6253313;22;20182;-65
2023/05/09 10:56:31;;;;;;;12.27;8.70;;;19.20;99.90;;;;;;6243728;22;20203;-64
2023/05/09 10:58:58;;;;;;;11.65;7.80;;;19.30;99.90;;;;;;6239809;22;20253;-64
2023/05/09 11:01:31;;;;;;;10.13;7.05;;;19.30;99.90;;;;;;6246225;22;20175;-64
2023/05/09 11:03:59;;;;;;;12.18;7.47;;;19.40;99.90;;;;;;6243281;22;20179;-64
2023/05/09 11:06:49;;;;;;;8.75;7.43;;;19.40;99.90;;;;;;6231865;22;20203;-64
2023/05/09 11:09:28;;;;;;;7.47;6.63;;;19.50;99.90;;;;;;6254813;22;20175;-65
2023/05/09 11:11:56;;;;;;;9.90;7.80;;;19.50;99.90;;;;;;6255379;22;20172;-65
2023/05/09 11:14:30;;;;;;;8.27;6.55;;;19.60;99.90;;;;;;6245685;22;20623;-65
2023/05/09 11:16:58;;;;;;;7.50;6.68;;;19.50;99.90;;;;;;6254422;22;20211;-65
2023/05/09 11:19:39;;;;;;;10.30;7.80;;;19.50;99.90;;;;;;6241621;22;20672;-65
2023/05/09 11:22:14;;;;;;;10.55;7.18;;;19.50;99.90;;;;;;6251464;22;20682;-65
2023/05/09 11:24:46;;;;;;;8.38;6.65;;;19.60;99.90;;;;;;6249015;22;20301;-65
2023/05/09 11:27:18;;;;;;;8.32;7.15;;;19.60;99.90;;;;;;6252307;22;20203;-65
2023/05/09 11:29:49;;;;;;;9.00;6.82;;;19.60;99.90;;;;;;6228167;22;20196;-65
2023/05/09 11:32:17;;;;;;;9.30;6.93;;;19.60;99.90;;;;;;6243629;22;20176;-65
2023/05/09 11:34:44;;;;;;;12.05;7.22;;;19.60;99.90;;;;;;6239581;22;20514;-64
2023/05/09 11:37:15;;;;;;;8.38;6.32;;;19.60;99.90;;;;;;6249882;22;20225;-65
2023/05/09 11:39:58;;;;;;;8.20;6.90;;;19.70;99.90;;;;;;6235945;22;20237;-66
2023/05/09 11:42:27;;;;;;;9.23;6.30;;;19.80;99.90;;;;;;6249481;22;20251;-65
2023/05/09 11:44:54;;;;;;;7.40;5.68;;;19.90;99.90;;;;;;6245460;22;20173;-66
2023/05/09 11:47:21;;;;;;;8.82;6.03;;;19.80;99.90;;;;;;6241664;22;20196;-65
2023/05/09 11:49:49;;;;;;;11.65;7.18;;;19.80;99.90;;;;;;6255563;22;20172;-65
2023/05/09 11:52:18;;;;;;;9.60;6.35;;;19.70;99.90;;;;;;6241315;22;20623;-65
2023/05/09 11:54:45;;;;;;;7.10;6.40;;;19.80;99.90;;;;;;6235422;22;20198;-64
2023/05/09 11:57:16;;;;;;;12.50;5.90;;;20.00;99.90;;;;;;6253191;22;20511;-65
2023/05/09 11:59:44;;;;;;;5.80;5.05;;;20.00;99.90;;;;;;6251194;22;20242;-65
2023/05/09 12:02:11;;;;;;;6.70;6.03;;;20.20;99.90;;;;;;6236447;22;20250;-65
2023/05/09 12:04:38;;;;;;;9.40;5.85;;;20.30;99.90;;;;;;6246349;22;20176;-65
2023/05/09 12:07:05;;;;;;;6.40;5.78;;;20.40;99.90;;;;;;6242608;22;20204;-65
2023/05/09 12:09:36;;;;;;;7.45;6.07;;;20.40;99.90;;;;;;6232835;22;20192;-65
2023/05/09 12:12:10;;;;;;;7.90;5.57;;;20.40;99.90;;;;;;6250164;22;20175;-65
2023/05/09 12:14:39;;;;;;;9.60;6.35;;;20.30;99.90;;;;;;6256432;22;20172;-65
2023/05/09 12:17:06;;;;;;;8.10;5.97;;;20.30;99.90;;;;;;6252011;22;20943;-65
2023/05/09 12:19:33;;;;;;;6.22;5.60;;;20.30;99.90;;;;;;6247167;22;20531;-65
2023/05/09 12:22:02;;;;;;;8.23;6.20;;;20.30;99.90;;;;;;6248452;22;20742;-65
2023/05/09 12:24:30;;;;;;;7.50;5.90;;;20.40;99.90;;;;;;6237816;22;20328;-65
2023/05/09 12:26:59;;;;;;;8.00;6.38;;;20.50;99.90;;;;;;6251513;22;20299;-65
2023/05/09 12:29:29;;;;;;;6.85;6.15;;;20.40;99.90;;;;;;6255074;22;20172;-65
2023/05/09 12:31:57;;;;;;;8.73;6.03;;;20.40;99.90;;;;;;6251499;22;20180;-66
2023/05/09 12:34:25;;;;;;;6.55;5.65;;;20.40;99.90;;;;;;6245681;22;20312;-65
2023/05/09 12:36:52;;;;;;;7.65;5.35;;;20.40;99.90;;;;;;6251486;22;20986;-65
2023/05/09 12:39:21;;;;;;;6.15;4.72;;;20.40;99.90;;;;;;6253338;22;20176;-65
2023/05/09 12:41:49;;;;;;;6.15;5.30;;;20.60;99.90;;;;;;6236242;22;20711;-65
2023/05/09 12:44:21;;;;;;;9.65;5.55;;;20.70;99.90;;;;;;6253763;22;20183;-65
2023/05/09 12:46:59;;;;;;;10.50;5.13;;;20.80;99.90;;;;;;6239482;22;20176;-65
2023/05/09 12:49:26;;;;;;;7.50;5.82;;;20.80;99.90;;;;;;6244105;22;20172;-65
2023/05/09 12:51:55;;;;;;;5.40;4.90;;;20.70;99.90;;;;;;6239560;22;20583;-65